createdAt,value
2024-02-26T00:00:15.699Z,30.60
2024-02-26T00:02:43.500Z,30.62
2024-02-26T00:05:11.012Z,28.20
2024-02-26T00:07:39.129Z,26.17
2024-02-26T00:10:07.270Z,30.30
2024-02-26T00:12:34.713Z,28.10
2024-02-26T00:15:02.306Z,29.17
2024-02-26T00:17:30.120Z,31.52
2024-02-26T00:19:57.620Z,24.60
2024-02-26T00:22:25.178Z,25.70
2024-02-26T00:24:52.889Z,27.70
2024-02-26T00:27:20.427Z,24.60
2024-02-26T00:29:47.926Z,28.38
2024-02-26T00:32:15.669Z,28.70
2024-02-26T00:34:43.164Z,27.58
2024-02-26T00:37:10.590Z,28.52
2024-02-26T00:39:38.494Z,31.45
2024-02-26T00:42:06.094Z,25.40
2024-02-26T00:44:33.516Z,24.50
2024-02-26T00:47:01.214Z,23.55
2024-02-26T00:49:28.846Z,25.60
2024-02-26T00:51:56.996Z,23.95
2024-02-26T00:54:24.849Z,24.63
2024-02-26T00:56:52.372Z,24.00
2024-02-26T00:59:19.809Z,23.40
2024-02-26T01:01:47.544Z,24.98
2024-02-26T01:04:15.118Z,23.67
2024-02-26T01:06:42.704Z,24.52
2024-02-26T01:09:10.565Z,26.90
2024-02-26T01:11:38.025Z,25.50
2024-02-26T01:14:05.696Z,22.73
2024-02-26T01:16:33.503Z,22.92
2024-02-26T01:19:01.094Z,21.67
2024-02-26T01:21:30.313Z,22.08
2024-02-26T01:23:58.519Z,22.25
2024-02-26T01:26:26.062Z,20.10
2024-02-26T01:28:53.618Z,20.67
2024-02-26T01:31:21.403Z,23.60
2024-02-26T01:33:49.027Z,22.95
2024-02-26T01:36:16.642Z,23.85
2024-02-26T01:38:44.544Z,25.55
2024-02-26T01:41:12.281Z,23.10
2024-02-26T01:43:39.778Z,26.50
2024-02-26T01:46:07.620Z,25.48
2024-02-26T01:48:35.285Z,24.20
2024-02-26T01:51:02.918Z,25.35
2024-02-26T01:53:31.245Z,26.48
2024-02-26T01:55:59.064Z,23.55
2024-02-26T01:58:26.791Z,25.80
2024-02-26T02:00:54.257Z,22.25
2024-02-26T02:03:22.100Z,25.58
2024-02-26T02:05:49.666Z,23.33
2024-02-26T02:08:17.143Z,22.58
2024-02-26T02:10:44.882Z,23.00
2024-02-26T02:13:12.398Z,24.30
2024-02-26T02:15:39.846Z,25.42
2024-02-26T02:18:07.847Z,21.10
2024-02-26T02:20:35.741Z,23.58
2024-02-26T02:23:03.674Z,23.33
2024-02-26T02:25:31.488Z,23.33
2024-02-26T02:27:59.023Z,25.02
2024-02-26T02:30:27.936Z,23.80
2024-02-26T02:32:55.855Z,23.83
2024-02-26T02:35:23.363Z,22.15
2024-02-26T02:37:52.770Z,22.45
2024-02-26T02:40:20.546Z,22.13
2024-02-26T02:42:48.002Z,18.42
2024-02-26T02:45:15.493Z,20.92
2024-02-26T02:47:43.268Z,17.98
2024-02-26T02:50:10.799Z,17.65
2024-02-26T02:52:38.334Z,19.92
2024-02-26T02:55:06.217Z,16.60
2024-02-26T02:57:33.653Z,19.45
2024-02-26T03:00:01.255Z,17.75
2024-02-26T03:02:30.817Z,17.80
2024-02-26T03:04:58.258Z,22.77
2024-02-26T03:07:25.853Z,17.92
2024-02-26T03:09:53.560Z,16.02
2024-02-26T03:12:21.136Z,19.30
2024-02-26T03:14:48.661Z,17.80
2024-02-26T03:17:16.488Z,20.42
2024-02-26T03:19:47.824Z,18.73
2024-02-26T03:22:15.401Z,20.02
2024-02-26T03:24:43.144Z,19.40
2024-02-26T03:27:10.928Z,20.25
2024-02-26T03:29:38.799Z,20.42
2024-02-26T03:32:07.147Z,22.75
2024-02-26T03:34:40.334Z,20.85
2024-02-26T03:37:10.438Z,18.35
2024-02-26T03:39:38.415Z,22.87
2024-02-26T03:42:05.912Z,19.55
2024-02-26T03:44:33.590Z,23.35
2024-02-26T03:47:01.034Z,19.42
2024-02-26T03:49:28.712Z,23.92
2024-02-26T03:51:57.114Z,20.55
2024-02-26T03:54:24.543Z,22.67
2024-02-26T03:56:51.989Z,25.77
2024-02-26T03:59:20.241Z,24.35
2024-02-26T04:01:50.964Z,21.48
2024-02-26T04:04:18.664Z,22.50
2024-02-26T04:06:49.244Z,17.50
2024-02-26T04:09:16.831Z,21.52
2024-02-26T04:11:44.772Z,19.17
2024-02-26T04:14:13.747Z,18.52
2024-02-26T04:16:41.406Z,17.37
2024-02-26T04:19:09.274Z,17.73
2024-02-26T04:21:36.818Z,18.77
2024-02-26T04:24:04.613Z,16.80
2024-02-26T04:26:32.348Z,19.83
2024-02-26T04:28:59.802Z,20.23
2024-02-26T04:31:31.527Z,17.37
2024-02-26T04:33:59.384Z,23.77
2024-02-26T04:36:29.960Z,19.30
2024-02-26T04:38:57.637Z,23.60
2024-02-26T04:41:25.422Z,19.83
2024-02-26T04:43:52.850Z,20.75
2024-02-26T04:46:20.300Z,19.37
2024-02-26T04:48:48.215Z,19.87
2024-02-26T04:51:15.783Z,17.23
2024-02-26T04:53:43.181Z,16.75
2024-02-26T04:56:10.900Z,17.33
2024-02-26T04:58:38.287Z,17.90
2024-02-26T05:01:05.770Z,16.35
2024-02-26T05:03:36.888Z,17.10
2024-02-26T05:06:06.272Z,24.50
2024-02-26T05:08:37.004Z,15.73
2024-02-26T05:11:05.141Z,18.65
2024-02-26T05:13:33.165Z,17.60
2024-02-26T05:16:01.144Z,20.30
2024-02-26T05:18:28.954Z,14.93
2024-02-26T05:20:56.586Z,14.93
2024-02-26T05:23:24.364Z,19.17
2024-02-26T05:25:51.787Z,18.23
2024-02-26T05:28:21.667Z,17.25
2024-02-26T05:30:49.534Z,14.18
2024-02-26T05:33:18.918Z,16.98
2024-02-26T05:35:47.129Z,15.10
2024-02-26T05:38:15.172Z,18.20
2024-02-26T05:40:42.724Z,15.68
2024-02-26T05:43:10.126Z,19.37
2024-02-26T05:45:37.892Z,15.02
2024-02-26T05:48:05.782Z,16.87
2024-02-26T05:50:33.363Z,16.37
2024-02-26T05:53:01.229Z,18.85
2024-02-26T05:55:28.931Z,18.45
2024-02-26T05:57:56.335Z,20.10
2024-02-26T06:00:24.115Z,16.92
2024-02-26T06:02:51.941Z,19.35
2024-02-26T06:05:19.546Z,16.20
2024-02-26T06:07:47.073Z,21.40
2024-02-26T06:10:17.856Z,19.37
2024-02-26T06:12:45.606Z,16.83
2024-02-26T06:15:13.301Z,16.48
2024-02-26T06:17:41.113Z,18.40
2024-02-26T06:20:13.008Z,16.17
2024-02-26T06:22:41.996Z,17.05
2024-02-26T06:25:09.476Z,16.77
2024-02-26T06:27:37.062Z,18.77
2024-02-26T06:30:05.213Z,16.35
2024-02-26T06:32:32.835Z,17.95
2024-02-26T06:35:00.543Z,18.75
2024-02-26T06:37:28.350Z,16.92
2024-02-26T06:39:55.875Z,19.27
2024-02-26T06:42:23.436Z,20.67
2024-02-26T06:44:51.295Z,20.42
2024-02-26T06:47:18.945Z,22.70
2024-02-26T06:49:46.616Z,21.27
2024-02-26T06:52:14.614Z,19.25
2024-02-26T06:54:42.939Z,22.77
2024-02-26T06:57:10.499Z,18.90
2024-02-26T06:59:38.556Z,21.27
2024-02-26T07:02:06.108Z,24.55
2024-02-26T07:04:35.398Z,25.25
2024-02-26T07:07:03.673Z,18.02
2024-02-26T07:09:31.247Z,27.70
2024-02-26T07:12:01.251Z,24.23
2024-02-26T07:14:29.704Z,23.73
2024-02-26T07:16:57.683Z,29.45
2024-02-26T07:19:25.227Z,23.23
2024-02-26T07:21:52.962Z,24.90
2024-02-26T07:24:20.645Z,25.98
2024-02-26T07:26:48.309Z,21.98
2024-02-26T07:29:16.020Z,24.98
2024-02-26T07:31:43.505Z,25.83
2024-02-26T07:34:11.076Z,22.35
2024-02-26T07:36:38.899Z,23.58
2024-02-26T07:39:06.433Z,20.08
2024-02-26T07:41:34.233Z,24.05
2024-02-26T07:44:02.096Z,23.62
2024-02-26T07:46:29.564Z,27.05
2024-02-26T07:48:57.095Z,22.50
2024-02-26T07:51:25.074Z,21.60
2024-02-26T07:53:54.158Z,20.83
2024-02-26T07:56:21.792Z,21.02
2024-02-26T07:58:49.469Z,18.90
2024-02-26T08:01:16.899Z,19.60
2024-02-26T08:03:44.844Z,19.52
2024-02-26T08:06:12.487Z,17.27
2024-02-26T08:08:40.068Z,19.95
2024-02-26T08:11:07.756Z,22.30
2024-02-26T08:13:35.253Z,17.65
2024-02-26T08:16:02.889Z,15.60
2024-02-26T08:18:30.735Z,20.83
2024-02-26T08:20:58.306Z,19.77
2024-02-26T08:23:26.405Z,18.12
2024-02-26T08:25:54.264Z,18.58
2024-02-26T08:28:21.667Z,16.52
2024-02-26T08:30:49.147Z,19.20
2024-02-26T08:33:17.300Z,18.65
2024-02-26T08:35:44.998Z,20.50
2024-02-26T08:38:12.465Z,16.20
2024-02-26T08:40:40.225Z,20.45
2024-02-26T08:43:07.872Z,18.50
2024-02-26T08:45:35.347Z,20.05
2024-02-26T08:48:03.315Z,20.73
2024-02-26T08:50:30.908Z,16.08
2024-02-26T08:52:58.352Z,19.12
2024-02-26T08:55:26.103Z,19.77
2024-02-26T08:57:53.651Z,17.77
2024-02-26T09:00:21.842Z,18.98
2024-02-26T09:02:50.646Z,18.55
2024-02-26T09:05:18.278Z,18.20
2024-02-26T09:07:46.206Z,19.98
2024-02-26T09:10:14.120Z,19.95
2024-02-26T09:12:41.629Z,18.92
2024-02-26T09:15:09.460Z,18.25
2024-02-26T09:17:37.594Z,16.87
2024-02-26T09:20:06.931Z,18.77
2024-02-26T09:22:35.979Z,19.92
2024-02-26T09:25:04.854Z,18.73
2024-02-26T09:27:32.446Z,18.17
2024-02-26T09:29:59.937Z,18.37
2024-02-26T09:32:27.740Z,20.12
2024-02-26T09:34:55.317Z,20.98
2024-02-26T09:37:22.954Z,23.05
2024-02-26T09:39:50.948Z,21.70
2024-02-26T09:42:19.839Z,20.48
2024-02-26T09:44:47.465Z,22.15
2024-02-26T09:47:16.693Z,22.80
2024-02-26T09:49:44.378Z,22.73
2024-02-26T09:52:12.297Z,20.58
2024-02-26T09:54:40.080Z,20.45
2024-02-26T09:57:08.823Z,21.98
2024-02-26T09:59:41.713Z,20.60
2024-02-26T10:02:13.835Z,19.12
2024-02-26T10:04:42.218Z,16.85
2024-02-26T10:07:13.836Z,15.40
2024-02-26T10:09:41.882Z,17.20
2024-02-26T10:12:12.887Z,16.95
2024-02-26T10:14:40.550Z,16.02
2024-02-26T10:17:09.723Z,16.10
2024-02-26T10:19:39.077Z,21.75
2024-02-26T10:22:07.411Z,22.10
2024-02-26T10:24:38.106Z,19.77
2024-02-26T10:27:05.787Z,19.02
2024-02-26T10:29:33.267Z,18.87
2024-02-26T10:32:01.049Z,18.08
2024-02-26T10:34:29.123Z,16.73
2024-02-26T10:36:56.914Z,15.13
2024-02-26T10:39:24.895Z,15.63
2024-02-26T10:41:52.496Z,16.33
2024-02-26T10:44:20.531Z,14.18
2024-02-26T10:46:51.204Z,16.30
2024-02-26T10:49:22.850Z,14.93
2024-02-26T10:51:57.735Z,14.30
2024-02-26T10:54:27.186Z,16.48
2024-02-26T10:56:55.186Z,14.15
2024-02-26T10:59:24.350Z,15.68
2024-02-26T11:01:52.056Z,14.77
2024-02-26T11:04:19.978Z,16.62
2024-02-26T11:06:47.886Z,14.50
2024-02-26T11:09:15.848Z,14.95
2024-02-26T11:11:43.767Z,14.77
2024-02-26T11:14:11.377Z,14.20
2024-02-26T11:16:39.420Z,17.35
2024-02-26T11:19:08.238Z,16.85
2024-02-26T11:21:43.378Z,19.95
2024-02-26T11:24:15.349Z,17.98
2024-02-26T11:27:03.561Z,17.80
2024-02-26T11:29:39.983Z,15.07
2024-02-26T11:32:07.470Z,14.60
2024-02-26T11:34:35.425Z,14.35
2024-02-26T11:37:17.826Z,15.18
2024-02-26T11:39:46.383Z,13.60
2024-02-26T11:42:17.162Z,14.95
2024-02-26T11:44:45.032Z,15.65
2024-02-26T11:47:19.798Z,13.57
2024-02-26T11:49:47.738Z,13.62
2024-02-26T11:52:15.688Z,13.93
2024-02-26T11:54:46.235Z,12.95
2024-02-26T11:57:30.270Z,17.62
2024-02-26T12:00:23.681Z,15.23
2024-02-26T12:02:58.978Z,13.98
2024-02-26T12:05:29.243Z,13.35
2024-02-26T12:08:00.913Z,12.77
2024-02-26T12:10:35.294Z,14.60
2024-02-26T12:13:14.818Z,11.00
2024-02-26T12:15:55.910Z,9.95
2024-02-26T12:18:23.874Z,12.70
2024-02-26T12:21:02.304Z,10.98
2024-02-26T12:23:30.151Z,11.45
2024-02-26T12:26:00.875Z,12.50
2024-02-26T12:28:31.530Z,12.90
2024-02-26T12:31:00.692Z,12.25
2024-02-26T12:33:28.804Z,12.45
2024-02-26T12:35:56.553Z,11.52
2024-02-26T12:38:24.369Z,12.68
2024-02-26T12:40:51.833Z,11.95
2024-02-26T12:43:19.420Z,12.60
2024-02-26T12:45:48.644Z,15.20
2024-02-26T12:48:16.693Z,11.75
2024-02-26T12:50:48.730Z,9.70
2024-02-26T12:53:16.687Z,9.73
2024-02-26T12:55:44.174Z,12.68
2024-02-26T12:58:12.221Z,9.38
2024-02-26T13:00:40.150Z,9.55
2024-02-26T13:03:07.762Z,10.35
2024-02-26T13:05:35.389Z,9.60
2024-02-26T13:08:06.136Z,8.95
2024-02-26T13:10:35.919Z,11.12
2024-02-26T13:13:03.825Z,10.70
2024-02-26T13:15:31.587Z,9.45
2024-02-26T13:17:59.564Z,9.63
2024-02-26T13:20:31.225Z,9.15
2024-02-26T13:23:02.881Z,10.85
2024-02-26T13:25:30.641Z,10.48
2024-02-26T13:28:10.976Z,11.20
2024-02-26T13:30:38.871Z,8.98
2024-02-26T13:33:13.146Z,8.00
2024-02-26T13:35:48.231Z,10.05
2024-02-26T13:38:15.739Z,7.85
2024-02-26T13:40:43.195Z,7.87
2024-02-26T13:43:10.988Z,10.43
2024-02-26T13:45:39.390Z,8.48
2024-02-26T13:48:08.381Z,7.90
2024-02-26T13:50:36.242Z,10.13
2024-02-26T13:53:08.827Z,10.65
2024-02-26T13:55:41.161Z,8.30
2024-02-26T13:58:13.567Z,8.43
2024-02-26T14:00:43.247Z,7.28
2024-02-26T14:03:13.298Z,9.02
2024-02-26T14:05:46.184Z,6.95
2024-02-26T14:08:16.435Z,9.27
2024-02-26T14:10:44.209Z,9.75
2024-02-26T14:13:11.647Z,9.02
2024-02-26T14:15:40.772Z,6.72
2024-02-26T14:18:11.880Z,10.90
2024-02-26T14:20:51.665Z,7.40
2024-02-26T14:23:23.196Z,7.62
2024-02-26T14:25:54.165Z,8.50
2024-02-26T14:28:25.781Z,6.80
2024-02-26T14:30:57.419Z,8.35
2024-02-26T14:33:25.288Z,8.43
2024-02-26T14:35:52.930Z,7.40
2024-02-26T14:38:22.058Z,9.45
2024-02-26T14:40:51.333Z,8.73
2024-02-26T14:43:23.386Z,9.90
2024-02-26T14:45:57.402Z,9.40
2024-02-26T14:48:29.154Z,9.82
2024-02-26T14:51:00.301Z,12.80
2024-02-26T14:53:27.803Z,15.73
2024-02-26T14:55:55.229Z,14.45
2024-02-26T14:58:22.922Z,13.25
2024-02-26T15:00:50.966Z,17.95
2024-02-26T15:03:19.222Z,13.75
2024-02-26T15:05:47.501Z,13.57
2024-02-26T15:08:16.759Z,12.27
2024-02-26T15:10:49.152Z,12.93
2024-02-26T15:13:19.155Z,13.82
2024-02-26T15:15:47.038Z,14.27
2024-02-26T15:18:17.352Z,13.50
2024-02-26T15:20:46.701Z,12.82
2024-02-26T15:23:14.274Z,13.70
2024-02-26T15:25:42.842Z,14.05
2024-02-26T15:28:16.161Z,12.88
2024-02-26T15:30:43.723Z,13.15
2024-02-26T15:33:13.035Z,13.77
2024-02-26T15:35:43.588Z,13.07
2024-02-26T15:38:11.344Z,14.10
2024-02-26T15:40:38.826Z,12.77
2024-02-26T15:43:06.273Z,14.35
2024-02-26T15:45:34.821Z,15.60
2024-02-26T15:48:02.524Z,15.02
2024-02-26T15:50:29.973Z,14.63
2024-02-26T15:52:59.280Z,14.70
2024-02-26T15:55:26.801Z,16.27
2024-02-26T15:57:54.320Z,15.23
2024-02-26T16:00:22.168Z,19.05
2024-02-26T16:02:52.900Z,16.30
2024-02-26T16:05:20.586Z,17.05
2024-02-26T16:07:54.322Z,20.12
2024-02-26T16:10:22.110Z,17.92
2024-02-26T16:12:54.948Z,20.50
2024-02-26T16:15:23.427Z,24.12
2024-02-26T16:17:52.603Z,30.55
2024-02-26T16:20:20.997Z,28.80
2024-02-26T16:22:49.013Z,27.73
2024-02-26T16:25:17.393Z,28.27
2024-02-26T16:27:45.174Z,32.13
2024-02-26T16:30:13.173Z,32.90
2024-02-26T16:32:41.293Z,28.95
2024-02-26T16:35:09.362Z,27.27
2024-02-26T16:37:37.673Z,23.20
2024-02-26T16:40:06.026Z,25.02
2024-02-26T16:42:33.498Z,25.08
2024-02-26T16:45:01.330Z,20.88
2024-02-26T16:47:29.005Z,21.85
2024-02-26T16:49:56.462Z,23.67
2024-02-26T16:52:24.430Z,24.83
2024-02-26T16:54:52.507Z,24.95
2024-02-26T16:57:21.444Z,22.73
2024-02-26T16:59:49.361Z,25.55
2024-02-26T17:02:17.103Z,26.83
2024-02-26T17:04:44.573Z,27.13
2024-02-26T17:07:12.395Z,30.52
2024-02-26T17:09:39.906Z,33.28
2024-02-26T17:12:10.096Z,51.95
2024-02-26T17:14:37.836Z,47.83
2024-02-26T17:17:07.913Z,34.83
2024-02-26T17:19:36.287Z,30.83
2024-02-26T17:22:10.195Z,34.10
2024-02-26T17:24:37.723Z,42.15
2024-02-26T17:27:07.817Z,46.83
2024-02-26T17:29:35.645Z,43.83
2024-02-26T17:32:09.129Z,37.15
2024-02-26T17:34:39.523Z,35.30
2024-02-26T17:37:07.474Z,34.13
2024-02-26T17:39:35.055Z,31.77
2024-02-26T17:42:03.548Z,34.63
2024-02-26T17:44:37.930Z,40.70
2024-02-26T17:47:05.981Z,44.10
2024-02-26T17:49:33.672Z,49.22
2024-02-26T17:52:01.577Z,50.53
2024-02-26T17:54:30.256Z,31.90
2024-02-26T17:56:58.767Z,35.17
2024-02-26T17:59:26.259Z,35.25
2024-02-26T18:01:54.066Z,36.70
2024-02-26T18:04:21.901Z,38.47
2024-02-26T18:06:49.494Z,33.90
2024-02-26T18:09:18.633Z,40.83
2024-02-26T18:11:46.990Z,39.25
2024-02-26T18:14:14.531Z,35.95
2024-02-26T18:16:42.022Z,37.85
2024-02-26T18:19:09.899Z,41.80
2024-02-26T18:21:37.535Z,33.33
2024-02-26T18:24:05.648Z,36.58
2024-02-26T18:26:35.191Z,32.85
2024-02-26T18:29:03.132Z,36.38
2024-02-26T18:31:33.028Z,44.75
2024-02-26T18:34:00.988Z,39.05
2024-02-26T18:36:28.600Z,41.67
2024-02-26T18:38:56.116Z,35.58
2024-02-26T18:41:25.092Z,38.97
2024-02-26T18:43:53.726Z,39.97
2024-02-26T18:46:21.153Z,37.47
2024-02-26T18:48:49.575Z,36.92
2024-02-26T18:51:17.249Z,38.83
2024-02-26T18:53:45.477Z,36.33
2024-02-26T18:56:13.511Z,38.58
2024-02-26T18:58:40.941Z,42.10
2024-02-26T19:01:08.928Z,46.65
2024-02-26T19:03:36.805Z,40.75
2024-02-26T19:06:07.527Z,40.88
2024-02-26T19:08:36.976Z,43.58
2024-02-26T19:11:07.340Z,41.65
2024-02-26T19:13:35.210Z,41.47
2024-02-26T19:16:03.657Z,45.83
2024-02-26T19:18:33.361Z,47.70
2024-02-26T19:21:01.077Z,47.28
2024-02-26T19:23:28.755Z,43.00
2024-02-26T19:25:56.599Z,46.05
2024-02-26T19:28:24.036Z,53.67
2024-02-26T19:30:51.476Z,62.03
2024-02-26T19:33:21.608Z,65.97
2024-02-26T19:35:50.209Z,58.20
2024-02-26T19:38:21.177Z,57.30
2024-02-26T19:40:48.879Z,54.03
2024-02-26T19:43:16.786Z,57.92
2024-02-26T19:45:46.552Z,54.20
2024-02-26T19:48:14.916Z,51.37
2024-02-26T19:50:45.755Z,51.67
2024-02-26T19:53:13.295Z,54.33
2024-02-26T19:55:42.056Z,49.92
2024-02-26T19:58:09.685Z,46.90
2024-02-26T20:00:37.504Z,46.53
2024-02-26T20:03:07.666Z,44.05
2024-02-26T20:05:35.745Z,42.38
2024-02-26T20:08:03.427Z,41.37
2024-02-26T20:10:31.141Z,53.92
2024-02-26T20:13:00.354Z,63.72
2024-02-26T20:15:27.972Z,64.22
2024-02-26T20:17:55.845Z,63.00
2024-02-26T20:20:30.420Z,62.50
2024-02-26T20:22:58.223Z,58.40
2024-02-26T20:25:25.603Z,59.03
2024-02-26T20:27:52.982Z,63.83
2024-02-26T20:30:22.705Z,55.78
2024-02-26T20:32:50.234Z,52.65
2024-02-26T20:35:17.684Z,51.10
2024-02-26T20:37:45.363Z,50.72
2024-02-26T20:40:12.797Z,52.20
2024-02-26T20:42:40.305Z,46.37
2024-02-26T20:45:09.008Z,48.65
2024-02-26T20:47:36.472Z,60.05
2024-02-26T20:50:06.434Z,60.33
2024-02-26T20:52:34.214Z,54.15
2024-02-26T20:55:01.651Z,54.63
2024-02-26T20:57:29.121Z,66.43
2024-02-26T20:59:59.090Z,70.37
2024-02-26T21:02:30.044Z,76.80
2024-02-26T21:05:01.995Z,67.62
2024-02-26T21:07:31.020Z,64.20
2024-02-26T21:09:58.565Z,70.57
2024-02-26T21:12:26.607Z,61.17
2024-02-26T21:14:54.972Z,61.13
2024-02-26T21:17:22.526Z,60.67
2024-02-26T21:19:52.618Z,61.58
2024-02-26T21:22:20.116Z,58.38
2024-02-26T21:24:47.754Z,61.85
2024-02-26T21:27:15.521Z,59.75
2024-02-26T21:29:42.960Z,60.12
2024-02-26T21:32:10.346Z,57.78
2024-02-26T21:34:38.123Z,56.22
2024-02-26T21:37:05.662Z,60.97
2024-02-26T21:39:33.077Z,56.50
2024-02-26T21:42:00.766Z,61.30
2024-02-26T21:44:28.173Z,73.07
2024-02-26T21:46:55.574Z,61.90
2024-02-26T21:49:23.410Z,66.05
2024-02-26T21:51:50.982Z,64.07
2024-02-26T21:54:18.482Z,61.90
2024-02-26T21:56:46.239Z,62.90
2024-02-26T21:59:14.053Z,58.78
2024-02-26T22:01:41.544Z,63.35
2024-02-26T22:04:09.574Z,60.28
2024-02-26T22:06:37.439Z,60.12
2024-02-26T22:09:09.343Z,56.00
2024-02-26T22:11:37.192Z,60.03
2024-02-26T22:14:04.735Z,59.10
2024-02-26T22:16:32.296Z,61.90
2024-02-26T22:19:02.319Z,52.72
2024-02-26T22:21:29.967Z,54.03
2024-02-26T22:23:57.474Z,53.97
2024-02-26T22:26:25.207Z,56.10
2024-02-26T22:28:52.659Z,53.85
2024-02-26T22:31:20.279Z,52.55
2024-02-26T22:33:48.116Z,53.13
2024-02-26T22:36:15.736Z,53.25
2024-02-26T22:38:43.170Z,53.78
2024-02-26T22:41:10.842Z,50.25
2024-02-26T22:43:38.217Z,49.53
2024-02-26T22:46:05.765Z,51.70
2024-02-26T22:48:33.495Z,50.40
2024-02-26T22:51:00.968Z,47.33
2024-02-26T22:53:28.375Z,46.00
2024-02-26T22:55:56.065Z,48.58
2024-02-26T22:58:23.488Z,47.70
2024-02-26T23:00:52.223Z,47.35
2024-02-26T23:03:20.287Z,48.42
2024-02-26T23:05:48.108Z,55.15
2024-02-26T23:08:18.422Z,44.63
2024-02-26T23:10:46.800Z,45.20
2024-02-26T23:13:14.289Z,45.22
2024-02-26T23:15:41.730Z,43.35
2024-02-26T23:18:09.511Z,41.37
2024-02-26T23:20:37.021Z,41.63
2024-02-26T23:23:05.175Z,42.85
2024-02-26T23:25:33.833Z,50.50
2024-02-26T23:28:01.712Z,48.47
2024-02-26T23:30:29.254Z,47.00
2024-02-26T23:32:57.104Z,49.47
2024-02-26T23:35:24.796Z,46.67
2024-02-26T23:37:52.285Z,45.92
2024-02-26T23:40:19.999Z,48.08
2024-02-26T23:42:47.420Z,47.22
2024-02-26T23:45:14.877Z,46.95
2024-02-26T23:47:42.576Z,45.05
2024-02-26T23:50:10.277Z,41.17
2024-02-26T23:52:37.685Z,46.03
2024-02-26T23:55:05.641Z,37.03
2024-02-26T23:57:33.102Z,44.85
